createdAt,value
2022-09-04T06:39:51.947Z,21.9
2022-09-04T06:45:35.844Z,21.9
2022-09-04T06:51:13.758Z,21.9
2022-09-04T06:57:02.302Z,21.9
2022-09-04T07:02:40.533Z,21.9
2022-09-04T07:08:16.808Z,21.9
2022-09-04T07:13:38.343Z,21.9
2022-09-04T07:19:17.122Z,21.9
2022-09-04T07:24:54.104Z,21.9
2022-09-04T07:30:32.993Z,21.9
2022-09-04T07:36:10.958Z,21.9
2022-09-04T07:41:56.765Z,21.9
2022-09-04T07:47:34.768Z,21.9
2022-09-04T07:53:21.302Z,21.9
2022-09-04T07:59:04.909Z,21.9
2022-09-04T08:04:45.147Z,21.9
2022-09-04T08:10:29.571Z,21.9
2022-09-04T08:16:08.396Z,21.9
2022-09-04T08:21:45.814Z,21.9
2022-09-04T08:27:07.866Z,21.9
2022-09-04T08:32:54.698Z,21.9
2022-09-04T08:38:31.419Z,22
2022-09-04T08:43:56.335Z,21.9
2022-09-04T08:49:38.055Z,22
2022-09-04T08:55:02.076Z,22
2022-09-04T09:00:27.748Z,22
2022-09-04T09:05:34.578Z,22.1
2022-09-04T09:11:16.304Z,22
2022-09-04T09:16:41.028Z,22
2022-09-04T09:22:06.498Z,22.1
2022-09-04T09:27:48.098Z,22.1
2022-09-04T09:33:27.955Z,22.1
2022-09-04T09:38:54.413Z,22.1
2022-09-04T09:44:35.060Z,22.1
2022-09-04T09:50:22.616Z,22.1
2022-09-04T09:56:00.655Z,22.1
2022-09-04T10:01:49.042Z,22.1
2022-09-04T10:07:25.768Z,22.1
2022-09-04T10:13:07.703Z,22.2
2022-09-04T10:18:44.037Z,22.2
2022-09-04T10:24:25.427Z,22.2
2022-09-04T10:30:12.880Z,22.2
2022-09-04T10:35:58.071Z,22.3
2022-09-04T10:41:38.356Z,22.3
2022-09-04T11:10:25.856Z,22.4
2022-09-04T11:16:04.707Z,22.4
2022-09-04T11:21:29.914Z,22.4
2022-09-04T11:27:10.421Z,22.5
2022-09-04T11:32:49.168Z,22.5
2022-09-04T11:38:30.474Z,22.5
2022-09-04T11:44:10.087Z,22.7
2022-09-04T11:49:46.339Z,22.7
2022-09-04T11:55:23.740Z,22.8
2022-09-04T12:01:01.509Z,22.9
2022-09-04T12:06:40.031Z,22.8
2022-09-04T12:12:30.720Z,22.8
2022-09-04T12:18:26.492Z,22.9
2022-09-04T12:24:05.632Z,22.8
2022-09-04T12:29:54.204Z,22.8
2022-09-04T12:35:37.524Z,22.8
2022-09-04T12:41:15.039Z,22.8
2022-09-04T12:46:58.138Z,22.9
2022-09-04T12:52:36.679Z,22.9
2022-09-04T12:58:20.887Z,22.9
2022-09-04T13:03:53.094Z,22.9
2022-09-04T13:09:45.635Z,22.9
2022-09-04T13:15:31.976Z,22.9
2022-09-04T13:21:10.768Z,22.9
2022-09-04T13:26:40.842Z,22.9
2022-09-04T13:32:21.406Z,22.9
2022-09-04T13:38:05.451Z,22.9
2022-09-04T13:43:43.274Z,22.9
2022-09-04T13:49:29.081Z,22.9
2022-09-04T13:55:11.690Z,22.9
2022-09-04T14:01:01.585Z,22.9
2022-09-04T14:06:40.698Z,22.9
2022-09-04T14:12:23.284Z,22.9
2022-09-04T14:18:06.885Z,22.9
2022-09-04T14:24:03.950Z,22.9
2022-09-04T14:29:48.289Z,22.9
2022-09-04T14:35:48.629Z,22.9
2022-09-04T14:41:25.772Z,22.9
2022-09-04T14:47:07.655Z,22.9
2022-09-04T14:52:54.104Z,22.9
2022-09-04T14:58:31.391Z,22.9
2022-09-04T15:04:11.722Z,22.9
2022-09-04T15:10:21.087Z,22.9
2022-09-04T15:16:16.397Z,22.9
2022-09-04T18:54:59.547Z,22.4
2022-09-04T19:00:50.047Z,22.4
2022-09-04T19:06:51.732Z,22.4
2022-09-04T19:12:52.392Z,22.4
2022-09-04T19:18:58.483Z,22.4
2022-09-04T19:24:58.961Z,22.3
2022-09-04T19:31:08.844Z,22.3
2022-09-04T19:36:55.445Z,22.3
2022-09-04T19:56:30.682Z,22.4
2022-09-04T20:03:46.893Z,22.3
2022-09-04T20:09:42.097Z,22.3
2022-09-04T20:15:37.478Z,22.3
2022-09-04T20:21:35.425Z,22.3
2022-09-04T20:27:46.175Z,22.3
2022-09-04T20:33:37.390Z,22.3
2022-09-04T20:39:20.744Z,22.3
2022-09-04T20:48:59.573Z,22.3
2022-09-04T21:05:14.900Z,22.1
2022-09-04T21:10:12.116Z,22
2022-09-04T21:16:25.022Z,22
2022-09-04T21:22:49.249Z,21.9
2022-09-04T21:28:39.984Z,22
2022-09-04T21:35:00.190Z,22.1
2022-09-04T21:41:40.135Z,22.1
2022-09-04T21:47:44.689Z,22.1
2022-09-04T21:54:08.716Z,22.1
2022-09-04T22:15:09.749Z,22.2
2022-09-04T22:20:59.721Z,22.3
2022-09-04T22:26:55.950Z,22.3
2022-09-04T22:33:27.042Z,22.3
2022-09-04T22:39:31.603Z,22.3
2022-09-04T22:45:43.116Z,22.3
2022-09-04T22:51:56.420Z,22.3
2022-09-04T22:58:19.293Z,22.3
2022-09-04T23:04:56.295Z,22.3
2022-09-04T23:27:20.292Z,22.3
2022-09-04T23:34:00.339Z,22.4
2022-09-04T23:40:13.931Z,22.4
2022-09-04T23:46:21.675Z,22.4
2022-09-04T23:52:27.314Z,22.4
2022-09-04T23:58:46.970Z,22.4
